Time;durP1;ratioP1;P1;durP2;ratioP2;P2;SDS_P1;SDS_P2;PMS_P1;PMS_P2;Temp;Humidity;BMP_temperature;BMP_pressure;BME280_temperature;BME280_humidity;BME280_pressure;Samples;Min_cycle;Max_cycle;Signal;HPM_P1;HPM_P2
2021/06/25 00:01:15;;;;;;;7.63;6.93;;;12.40;99.90;;;;;;5097981;28;20197;-86
2021/06/25 00:03:42;;;;;;;6.37;5.77;;;12.40;99.90;;;;;;5089474;28;20216;-87
2021/06/25 00:06:09;;;;;;;6.20;5.20;;;12.40;99.90;;;;;;5077959;28;20196;-83
2021/06/25 00:08:35;;;;;;;6.27;4.77;;;12.40;99.90;;;;;;5077527;28;20194;-79
2021/06/25 00:11:03;;;;;;;5.80;5.20;;;12.40;99.90;;;;;;5080484;28;20228;-79
2021/06/25 00:13:31;;;;;;;8.17;5.97;;;12.40;99.90;;;;;;5097860;28;20207;-80
2021/06/25 00:15:58;;;;;;;7.43;5.67;;;12.40;99.90;;;;;;5097180;28;20225;-84
2021/06/25 00:18:25;;;;;;;5.93;5.27;;;12.30;99.90;;;;;;5097780;28;20204;-87
2021/06/25 00:20:52;;;;;;;8.33;6.67;;;12.30;99.90;;;;;;5098310;28;20189;-87
2021/06/25 00:23:18;;;;;;;9.60;7.33;;;12.30;99.90;;;;;;5094387;28;20197;-80
2021/06/25 00:25:45;;;;;;;7.03;6.00;;;12.30;99.90;;;;;;5077139;28;20201;-80
2021/06/25 00:28:12;;;;;;;7.03;6.43;;;12.30;99.90;;;;;;5077514;28;20190;-88
2021/06/25 00:30:41;;;;;;;8.10;6.67;;;12.30;99.90;;;;;;5077672;28;20585;-80
2021/06/25 00:33:07;;;;;;;7.40;6.70;;;12.30;99.90;;;;;;5077135;28;20251;-80
2021/06/25 00:35:34;;;;;;;6.73;6.10;;;12.30;99.90;;;;;;5077171;28;20216;-88
2021/06/25 00:38:01;;;;;;;6.17;5.13;;;12.30;99.90;;;;;;5076930;28;20200;-83
2021/06/25 00:40:28;;;;;;;5.50;5.00;;;12.30;99.90;;;;;;5077320;28;20209;-86
2021/06/25 00:42:54;;;;;;;6.10;4.83;;;12.30;99.90;;;;;;5076984;28;20201;-87
2021/06/25 00:45:23;;;;;;;6.27;5.30;;;12.30;99.90;;;;;;5077372;28;20287;-85
2021/06/25 00:47:51;;;;;;;6.97;6.27;;;12.40;99.90;;;;;;5084992;28;20643;-81
2021/06/25 00:50:20;;;;;;;9.10;7.87;;;12.40;99.90;;;;;;5097430;28;20734;-80
2021/06/25 00:52:50;;;;;;;9.13;7.90;;;12.50;99.90;;;;;;5096610;28;20197;-88
2021/06/25 00:55:17;;;;;;;9.60;8.60;;;12.50;99.90;;;;;;5097429;28;20228;-84
2021/06/25 00:57:44;;;;;;;10.87;9.77;;;12.50;99.90;;;;;;5082824;28;20216;-88
2021/06/25 01:00:12;;;;;;;11.20;9.77;;;12.60;99.90;;;;;;5077261;28;20293;-88
2021/06/25 01:02:39;;;;;;;10.00;9.10;;;12.60;99.90;;;;;;5077134;28;20212;-88
2021/06/25 01:05:09;;;;;;;9.57;8.57;;;12.60;99.90;;;;;;5076952;28;20197;-88
2021/06/25 01:07:36;;;;;;;9.00;8.20;;;12.70;99.90;;;;;;5076713;28;20197;-88
2021/06/25 01:10:06;;;;;;;12.40;11.10;;;12.70;99.90;;;;;;5077085;28;20229;-89
2021/06/25 01:12:33;;;;;;;15.57;11.63;;;12.80;99.90;;;;;;5076990;28;20202;-86
2021/06/25 01:14:59;;;;;;;14.17;12.73;;;12.80;99.90;;;;;;5076730;28;20205;-87
2021/06/25 01:17:31;;;;;;;18.63;16.10;;;12.80;99.90;;;;;;5077164;28;20221;-86
2021/06/25 01:19:57;;;;;;;16.53;14.73;;;12.90;99.90;;;;;;5076412;28;20208;-83
2021/06/25 01:22:34;;;;;;;19.80;16.73;;;12.90;99.90;;;;;;5091999;28;20200;-89
2021/06/25 01:25:04;;;;;;;20.07;16.67;;;12.90;99.90;;;;;;5097173;28;20197;-87
2021/06/25 01:27:31;;;;;;;17.73;15.83;;;12.90;99.90;;;;;;5096307;28;20212;-89
2021/06/25 01:29:58;;;;;;;16.70;14.93;;;12.90;99.90;;;;;;5096696;28;20558;-89
2021/06/25 01:32:25;;;;;;;16.97;15.20;;;12.90;99.90;;;;;;5096161;28;20204;-90
2021/06/25 01:34:52;;;;;;;17.07;15.27;;;12.90;99.90;;;;;;5096596;28;20502;-89
2021/06/25 01:37:19;;;;;;;17.63;15.47;;;12.90;99.90;;;;;;5095917;28;20536;-83
2021/06/25 01:39:50;;;;;;;19.83;15.70;;;12.90;99.90;;;;;;5096936;28;20597;-87
2021/06/25 01:42:18;;;;;;;17.77;14.40;;;12.90;99.90;;;;;;5096225;28;20204;-85
2021/06/25 01:44:46;;;;;;;21.47;15.77;;;12.90;99.90;;;;;;5097135;28;20197;-86
2021/06/25 01:47:13;;;;;;;16.53;13.80;;;12.90;99.90;;;;;;5096380;28;20200;-85
2021/06/25 01:49:40;;;;;;;16.30;14.57;;;12.90;99.90;;;;;;5095803;28;20237;-88
2021/06/25 01:52:07;;;;;;;16.13;14.53;;;13.00;99.90;;;;;;5096450;28;20200;-88
2021/06/25 01:54:34;;;;;;;16.20;14.37;;;13.00;99.90;;;;;;5096373;28;20200;-85
2021/06/25 01:57:02;;;;;;;19.33;14.93;;;13.00;99.90;;;;;;5095432;28;20225;-81
2021/06/25 01:59:29;;;;;;;15.00;13.47;;;13.00;99.90;;;;;;5095450;28;20211;-80
2021/06/25 02:01:56;;;;;;;15.97;14.27;;;13.00;99.90;;;;;;5096020;28;20203;-84
2021/06/25 02:04:23;;;;;;;14.03;12.03;;;13.10;99.90;;;;;;5095950;28;20215;-81
2021/06/25 02:06:49;;;;;;;15.63;11.87;;;13.10;99.90;;;;;;5095669;28;20919;-85
2021/06/25 02:09:16;;;;;;;15.03;13.43;;;13.10;99.90;;;;;;5075854;28;20213;-86
2021/06/25 02:11:43;;;;;;;14.07;12.07;;;13.20;99.90;;;;;;5075588;28;20225;-85
2021/06/25 02:14:11;;;;;;;20.80;14.97;;;13.20;99.90;;;;;;5075406;28;20193;-83
2021/06/25 02:16:38;;;;;;;17.47;15.23;;;13.20;99.90;;;;;;5075377;28;20317;-83
2021/06/25 02:19:05;;;;;;;16.93;14.80;;;13.20;99.90;;;;;;5076085;28;20239;-86
2021/06/25 02:21:31;;;;;;;21.23;18.20;;;13.20;99.90;;;;;;5075544;28;21092;-86
2021/06/25 02:23:58;;;;;;;24.43;20.67;;;13.20;99.90;;;;;;5075722;28;20212;-87
2021/06/25 02:26:25;;;;;;;26.37;20.40;;;13.20;99.90;;;;;;5075943;28;20194;-83
2021/06/25 02:28:52;;;;;;;27.87;21.20;;;13.20;99.90;;;;;;5077861;28;20194;-85
2021/06/25 02:31:20;;;;;;;27.23;20.97;;;13.20;99.90;;;;;;5095539;28;20200;-87
2021/06/25 02:33:47;;;;;;;29.23;21.50;;;13.20;99.90;;;;;;5095901;28;20207;-84
2021/06/25 02:36:14;;;;;;;24.30;20.73;;;13.20;99.90;;;;;;5095634;28;20243;-86
2021/06/25 02:38:40;;;;;;;24.87;20.57;;;13.20;99.90;;;;;;5095378;28;20627;-86
2021/06/25 02:41:07;;;;;;;24.97;20.57;;;13.20;99.90;;;;;;5096046;28;20501;-85
2021/06/25 02:43:34;;;;;;;24.50;20.30;;;13.30;99.90;;;;;;5084075;28;20207;-86
2021/06/25 02:46:01;;;;;;;26.73;21.90;;;13.30;99.90;;;;;;5075467;28;20197;-85
2021/06/25 02:48:29;;;;;;;26.83;21.53;;;13.30;99.90;;;;;;5075728;28;20241;-83
2021/06/25 02:50:56;;;;;;;29.53;20.83;;;13.30;99.90;;;;;;5078649;28;20621;-80
2021/06/25 02:53:23;;;;;;;25.20;19.40;;;13.30;99.90;;;;;;5097252;28;20547;-83
2021/06/25 02:55:53;;;;;;;28.10;22.03;;;13.30;99.90;;;;;;5099281;28;20204;-86
2021/06/25 02:58:20;;;;;;;26.77;21.07;;;13.30;99.90;;;;;;5099686;28;20291;-84
2021/06/25 03:00:47;;;;;;;27.10;20.23;;;13.30;99.90;;;;;;5099679;28;20196;-86
2021/06/25 03:03:14;;;;;;;31.03;22.80;;;13.30;99.90;;;;;;5080579;28;20232;-86
2021/06/25 03:05:43;;;;;;;25.10;20.63;;;13.30;99.90;;;;;;5079091;28;20203;-86
2021/06/25 03:08:10;;;;;;;26.20;21.50;;;13.30;99.90;;;;;;5079543;28;20205;-81
2021/06/25 03:10:37;;;;;;;25.67;20.27;;;13.40;99.90;;;;;;5079347;28;20212;-84
2021/06/25 03:13:04;;;;;;;23.70;20.23;;;13.40;99.90;;;;;;5078852;28;20197;-86
2021/06/25 03:15:31;;;;;;;27.10;20.83;;;13.40;99.90;;;;;;5080593;28;20246;-86
2021/06/25 03:17:58;;;;;;;26.20;21.10;;;13.40;99.90;;;;;;5099522;28;20224;-85
2021/06/25 03:20:25;;;;;;;29.00;20.07;;;13.40;99.90;;;;;;5099304;28;20222;-85
2021/06/25 03:22:53;;;;;;;30.80;21.63;;;13.40;99.90;;;;;;5099003;28;20192;-84
2021/06/25 03:25:20;;;;;;;29.30;22.20;;;13.40;99.90;;;;;;5099364;28;20197;-85
2021/06/25 03:27:47;;;;;;;28.53;21.07;;;13.40;99.90;;;;;;5098683;28;20189;-83
2021/06/25 03:30:14;;;;;;;26.60;21.10;;;13.40;99.90;;;;;;5084459;28;20225;-85
2021/06/25 03:32:42;;;;;;;29.50;21.63;;;13.50;99.90;;;;;;5078491;28;20198;-84
2021/06/25 03:35:10;;;;;;;27.50;20.50;;;13.50;99.90;;;;;;5079087;28;20207;-85
2021/06/25 03:37:37;;;;;;;24.60;20.47;;;13.50;99.90;;;;;;5078371;28;20228;-84
2021/06/25 03:40:09;;;;;;;28.93;22.30;;;13.50;99.90;;;;;;5078554;28;20197;-86
2021/06/25 03:42:35;;;;;;;21.60;17.43;;;13.50;99.90;;;;;;5078625;28;20202;-84
2021/06/25 03:45:02;;;;;;;26.67;20.50;;;13.50;99.90;;;;;;5078704;28;20193;-84
2021/06/25 03:47:29;;;;;;;26.87;19.87;;;13.50;99.90;;;;;;5078367;28;20200;-85
2021/06/25 03:49:56;;;;;;;26.23;20.80;;;13.50;99.90;;;;;;5078297;28;20233;-86
2021/06/25 03:52:22;;;;;;;24.03;18.57;;;13.50;99.90;;;;;;5078401;28;20205;-85
2021/06/25 03:54:49;;;;;;;24.10;18.47;;;13.50;99.90;;;;;;5078371;28;20207;-84
2021/06/25 03:57:17;;;;;;;24.77;19.97;;;13.60;99.90;;;;;;5078436;28;20229;-83
2021/06/25 03:59:44;;;;;;;23.57;18.50;;;13.60;99.90;;;;;;5077956;28;20676;-83
2021/06/25 04:02:11;;;;;;;23.47;19.00;;;13.60;99.90;;;;;;5077481;28;20201;-85
2021/06/25 04:04:38;;;;;;;26.60;19.17;;;13.60;99.90;;;;;;5089713;28;20216;-84
2021/06/25 04:07:06;;;;;;;20.77;17.43;;;13.70;99.90;;;;;;5093479;28;20258;-84
2021/06/25 04:09:34;;;;;;;26.33;21.00;;;13.70;99.90;;;;;;5077294;28;20208;-81
2021/06/25 04:12:01;;;;;;;25.83;19.83;;;13.70;99.90;;;;;;5078088;28;20240;-84
2021/06/25 04:14:29;;;;;;;26.20;21.57;;;13.70;99.90;;;;;;5077793;28;20193;-82
2021/06/25 04:16:56;;;;;;;27.30;20.87;;;13.70;99.90;;;;;;5077294;28;20229;-83
2021/06/25 04:19:23;;;;;;;23.60;19.33;;;13.70;99.90;;;;;;5077792;28;20197;-86
2021/06/25 04:21:50;;;;;;;27.80;20.60;;;13.80;99.90;;;;;;5077681;28;20482;-85
2021/06/25 04:24:17;;;;;;;25.73;20.27;;;13.80;99.90;;;;;;5077294;28;20204;-86
2021/06/25 04:26:44;;;;;;;23.67;19.03;;;13.80;99.90;;;;;;5078229;28;20212;-86
2021/06/25 04:29:13;;;;;;;26.53;21.00;;;13.90;99.90;;;;;;5078025;28;20609;-84
2021/06/25 04:31:44;;;;;;;21.07;18.77;;;13.90;99.90;;;;;;5077088;28;20208;-81
2021/06/25 04:34:10;;;;;;;23.77;20.60;;;13.90;99.90;;;;;;5077025;28;20697;-85
2021/06/25 04:36:37;;;;;;;26.93;21.30;;;13.90;99.90;;;;;;5077120;28;20220;-85
2021/06/25 04:39:05;;;;;;;24.03;18.43;;;14.00;99.90;;;;;;5077437;28;20201;-86
2021/06/25 04:41:33;;;;;;;23.90;18.60;;;14.00;99.90;;;;;;5076960;28;20200;-84
2021/06/25 04:44:00;;;;;;;24.13;19.40;;;14.00;99.90;;;;;;5076488;28;20205;-83
2021/06/25 04:46:27;;;;;;;23.43;18.30;;;14.10;99.90;;;;;;5077071;28;20197;-85
2021/06/25 04:48:55;;;;;;;25.43;20.10;;;14.10;99.90;;;;;;5077010;28;20244;-87
2021/06/25 04:51:22;;;;;;;26.83;20.20;;;14.20;99.90;;;;;;5076855;28;20197;-80
2021/06/25 04:53:49;;;;;;;24.27;19.33;;;14.20;99.90;;;;;;5076626;28;20217;-85
2021/06/25 04:56:15;;;;;;;21.33;18.67;;;14.30;99.90;;;;;;5076746;28;20205;-87
2021/06/25 04:58:42;;;;;;;26.53;20.10;;;14.30;99.90;;;;;;5076200;28;20197;-83
2021/06/25 05:01:09;;;;;;;24.90;20.13;;;14.40;99.90;;;;;;5077076;28;20197;-83
2021/06/25 05:03:37;;;;;;;22.00;18.27;;;14.40;99.90;;;;;;5077422;28;20205;-85
2021/06/25 05:06:05;;;;;;;20.37;17.07;;;14.40;99.90;;;;;;5076387;28;20212;-84
2021/06/25 05:08:32;;;;;;;22.97;19.23;;;14.50;99.90;;;;;;5076783;28;20194;-84
2021/06/25 05:10:59;;;;;;;25.60;19.27;;;14.60;99.90;;;;;;5076217;28;20232;-82
2021/06/25 05:13:26;;;;;;;22.03;18.57;;;14.60;99.90;;;;;;5075926;28;20213;-82
2021/06/25 05:15:53;;;;;;;24.83;18.33;;;14.60;99.90;;;;;;5078601;28;20202;-86
2021/06/25 05:18:22;;;;;;;21.63;17.77;;;14.70;99.90;;;;;;5097146;28;20243;-87
2021/06/25 05:20:50;;;;;;;23.93;18.77;;;14.80;99.90;;;;;;5096650;28;20188;-84
2021/06/25 05:23:20;;;;;;;18.03;16.13;;;14.80;99.90;;;;;;5096863;28;20196;-86
2021/06/25 05:25:47;;;;;;;22.80;18.17;;;14.90;99.90;;;;;;5091950;28;20213;-86
2021/06/25 05:28:14;;;;;;;24.47;18.13;;;15.00;99.90;;;;;;5076457;28;20200;-87
2021/06/25 05:30:41;;;;;;;23.00;16.73;;;15.10;99.90;;;;;;5076669;28;20193;-86
2021/06/25 05:33:09;;;;;;;20.77;16.33;;;15.20;99.90;;;;;;5076171;28;20212;-85
2021/06/25 05:35:37;;;;;;;18.77;15.70;;;15.30;99.90;;;;;;5080760;28;20531;-85
2021/06/25 05:38:06;;;;;;;21.67;16.83;;;15.50;99.90;;;;;;5096393;28;20495;-86
2021/06/25 05:40:35;;;;;;;15.80;14.07;;;15.60;99.90;;;;;;5095905;28;20200;-85
2021/06/25 05:43:02;;;;;;;17.77;15.47;;;15.80;99.90;;;;;;5095009;28;20205;-85
2021/06/25 05:45:29;;;;;;;19.90;15.90;;;15.90;99.90;;;;;;5096144;28;20204;-82
2021/06/25 05:47:56;;;;;;;18.77;15.17;;;16.10;99.90;;;;;;5095951;28;20196;-82
2021/06/25 05:50:23;;;;;;;17.40;14.40;;;16.20;99.90;;;;;;5096292;28;20188;-81
2021/06/25 05:52:50;;;;;;;22.03;14.60;;;16.40;99.90;;;;;;5096171;28;20597;-80
2021/06/25 05:55:16;;;;;;;22.47;16.47;;;16.60;99.90;;;;;;5095535;28;20203;-85
2021/06/25 05:57:46;;;;;;;17.13;14.07;;;16.70;99.90;;;;;;5096068;28;20228;-86
2021/06/25 06:00:13;;;;;;;16.05;13.20;;;16.80;99.90;;;;;;5093989;28;20646;-85
2021/06/25 06:02:40;;;;;;;17.52;13.65;;;16.90;99.90;;;;;;5075117;28;20201;-84
2021/06/25 06:05:09;;;;;;;15.37;13.43;;;16.90;99.90;;;;;;5075906;28;20216;-84
2021/06/25 06:07:36;;;;;;;20.17;16.25;;;16.90;99.90;;;;;;5075808;28;20197;-85
2021/06/25 06:10:03;;;;;;;19.77;15.05;;;16.90;99.90;;;;;;5075832;28;20224;-84
2021/06/25 06:12:30;;;;;;;21.30;15.48;;;17.00;99.90;;;;;;5075907;28;20193;-85
2021/06/25 06:14:59;;;;;;;22.75;15.20;;;17.00;99.90;;;;;;5075908;28;20515;-83
2021/06/25 06:17:25;;;;;;;22.77;16.58;;;17.00;99.90;;;;;;5075908;28;20249;-85
2021/06/25 06:19:54;;;;;;;16.77;13.73;;;17.00;99.90;;;;;;5076060;28;20220;-88
2021/06/25 06:33:22;;;;;;;14.85;12.70;;;17.30;99.90;;;;;;5075759;28;20184;-86
2021/06/25 06:35:50;;;;;;;18.33;13.45;;;17.40;99.90;;;;;;5075809;28;20521;-87
2021/06/25 06:38:17;;;;;;;20.85;12.82;;;17.50;99.90;;;;;;5075322;28;20303;-84
2021/06/25 06:40:44;;;;;;;19.52;13.32;;;17.60;99.90;;;;;;5086499;28;20274;-84
2021/06/25 06:43:11;;;;;;;17.98;12.57;;;17.70;99.90;;;;;;5095769;28;20201;-85
2021/06/25 06:45:40;;;;;;;14.90;11.95;;;17.90;99.90;;;;;;5077916;28;20213;-86
2021/06/25 06:48:07;;;;;;;19.08;14.43;;;18.00;99.90;;;;;;5075204;28;20608;-85
2021/06/25 06:50:34;;;;;;;18.10;12.10;;;18.10;99.90;;;;;;5075371;28;20192;-85
2021/06/25 06:53:01;;;;;;;19.75;15.27;;;18.30;99.90;;;;;;5075642;28;20203;-84
2021/06/25 06:55:28;;;;;;;16.27;13.50;;;18.40;99.90;;;;;;5075254;28;20220;-85
2021/06/25 06:57:55;;;;;;;20.60;15.18;;;18.40;99.90;;;;;;5074984;28;20221;-85
2021/06/25 07:00:22;;;;;;;23.23;17.02;;;18.50;99.90;;;;;;5075202;28;20199;-85
2021/06/25 07:02:53;;;;;;;20.00;15.52;;;18.60;99.90;;;;;;5075189;28;20201;-80
2021/06/25 07:05:19;;;;;;;20.92;15.80;;;18.70;99.90;;;;;;5075029;28;20239;-82
2021/06/25 07:07:46;;;;;;;19.67;14.30;;;18.70;99.90;;;;;;5075454;28;20196;-85
2021/06/25 07:10:13;;;;;;;19.48;15.65;;;18.80;99.90;;;;;;5075066;28;20252;-85
2021/06/25 07:12:42;;;;;;;24.05;14.57;;;18.80;99.90;;;;;;5074892;28;20209;-85
2021/06/25 07:15:09;;;;;;;18.90;14.30;;;18.90;99.90;;;;;;5084908;28;20333;-84
2021/06/25 07:17:36;;;;;;;18.92;14.70;;;19.00;99.90;;;;;;5095194;28;20217;-85
2021/06/25 07:20:06;;;;;;;22.33;16.70;;;19.10;99.90;;;;;;5086327;28;20213;-85
2021/06/25 07:22:34;;;;;;;21.73;16.25;;;19.30;99.90;;;;;;5075199;28;20189;-84
2021/06/25 07:25:01;;;;;;;26.80;17.83;;;19.40;99.90;;;;;;5075314;28;20204;-84
2021/06/25 07:27:27;;;;;;;25.05;18.40;;;19.50;99.90;;;;;;5074559;28;20204;-82
2021/06/25 07:29:54;;;;;;;22.77;18.73;;;19.50;99.90;;;;;;5075048;28;20208;-84
2021/06/25 07:32:21;;;;;;;23.40;17.55;;;19.40;99.90;;;;;;5074539;28;20204;-83
2021/06/25 07:34:48;;;;;;;24.83;17.38;;;19.40;99.90;;;;;;5074434;28;20500;-81
2021/06/25 07:37:16;;;;;;;25.48;18.48;;;19.40;99.90;;;;;;5078022;28;20201;-84
2021/06/25 07:39:43;;;;;;;23.38;17.58;;;19.40;99.90;;;;;;5077759;28;20205;-82
2021/06/25 07:42:10;;;;;;;21.83;16.92;;;19.50;99.90;;;;;;5078143;28;20200;-84
2021/06/25 07:44:37;;;;;;;22.67;15.80;;;19.50;99.90;;;;;;5078709;28;20209;-82
2021/06/25 07:47:04;;;;;;;27.17;17.85;;;19.70;99.90;;;;;;5078021;28;20614;-85
2021/06/25 07:49:30;;;;;;;21.35;16.30;;;19.80;99.90;;;;;;5078144;28;20233;-84
2021/06/25 07:51:57;;;;;;;25.25;18.45;;;19.90;99.90;;;;;;5077944;28;20577;-82
2021/06/25 07:54:25;;;;;;;20.65;16.83;;;19.90;99.90;;;;;;5095238;28;20504;-84
2021/06/25 07:56:52;;;;;;;26.45;16.65;;;19.80;99.90;;;;;;5097304;28;20211;-83
2021/06/25 07:59:19;;;;;;;21.40;16.15;;;19.80;99.90;;;;;;5078075;28;20218;-82
2021/06/25 08:01:46;;;;;;;21.60;16.83;;;19.90;99.90;;;;;;5078157;28;20219;-84
2021/06/25 08:04:12;;;;;;;22.92;15.73;;;19.80;99.90;;;;;;5077788;28;20280;-85
2021/06/25 08:06:39;;;;;;;22.88;14.68;;;19.80;99.90;;;;;;5078363;28;20640;-80
2021/06/25 08:09:07;;;;;;;23.13;16.83;;;19.80;99.90;;;;;;5077277;28;20201;-83
2021/06/25 08:11:36;;;;;;;22.85;15.52;;;19.70;99.90;;;;;;5077338;28;20227;-80
2021/06/25 08:14:03;;;;;;;19.40;13.90;;;19.60;99.90;;;;;;5077572;28;20259;-84
2021/06/25 08:16:30;;;;;;;20.10;13.77;;;19.50;99.90;;;;;;5077150;28;20208;-81
2021/06/25 08:18:58;;;;;;;18.60;14.75;;;19.50;99.90;;;;;;5077561;28;20629;-84
2021/06/25 08:21:25;;;;;;;17.92;12.73;;;19.50;99.90;;;;;;5077610;28;20198;-84
2021/06/25 08:23:52;;;;;;;22.42;13.85;;;19.50;99.90;;;;;;5077330;28;20205;-85
2021/06/25 08:26:19;;;;;;;21.00;13.48;;;19.60;99.90;;;;;;5077703;28;20201;-85
2021/06/25 08:28:48;;;;;;;20.65;14.07;;;19.70;99.90;;;;;;5076809;28;20193;-85
2021/06/25 08:31:15;;;;;;;18.40;12.32;;;19.80;99.90;;;;;;5077247;28;20205;-81
2021/06/25 08:33:42;;;;;;;17.27;11.93;;;19.80;99.90;;;;;;5077365;28;20193;-83
2021/06/25 08:36:09;;;;;;;18.52;12.85;;;19.90;99.90;;;;;;5077292;28;20224;-82
2021/06/25 08:38:36;;;;;;;23.42;14.63;;;19.90;99.90;;;;;;5077181;28;20220;-83
2021/06/25 08:41:03;;;;;;;21.02;13.20;;;19.80;99.90;;;;;;5077021;28;20204;-83
2021/06/25 08:43:30;;;;;;;20.52;13.35;;;19.70;99.90;;;;;;5078423;28;20205;-84
2021/06/25 08:46:00;;;;;;;23.27;14.75;;;19.60;99.90;;;;;;5097678;28;20201;-82
2021/06/25 08:48:28;;;;;;;17.70;12.73;;;19.50;99.90;;;;;;5097032;28;20636;-80
2021/06/25 08:50:56;;;;;;;20.13;13.63;;;19.50;99.90;;;;;;5097093;28;20601;-84
2021/06/25 08:53:23;;;;;;;18.90;13.65;;;19.50;99.90;;;;;;5095813;28;20265;-85
2021/06/25 08:55:50;;;;;;;19.75;14.15;;;19.60;99.90;;;;;;5077213;28;20217;-84
2021/06/25 08:58:19;;;;;;;22.17;13.75;;;19.60;99.90;;;;;;5076474;28;20224;-81
2021/06/25 09:00:46;;;;;;;17.77;13.77;;;19.70;99.90;;;;;;5084070;28;20211;-84
2021/06/25 09:03:20;;;;;;;17.77;12.68;;;19.70;99.90;;;;;;5096939;28;20680;-82
2021/06/25 09:05:47;;;;;;;20.90;14.45;;;20.00;99.90;;;;;;5084032;28;20204;-84
2021/06/25 09:08:28;;;;;;;18.42;13.90;;;20.20;99.90;;;;;;5076619;28;20249;-83
2021/06/25 09:10:57;;;;;;;20.10;13.68;;;20.30;99.90;;;;;;5075712;28;20221;-85
2021/06/25 09:13:32;;;;;;;19.98;14.55;;;20.50;99.90;;;;;;5090885;28;20232;-83
2021/06/25 09:15:59;;;;;;;23.30;13.65;;;20.50;99.90;;;;;;5094782;28;20251;-82
2021/06/25 09:18:28;;;;;;;21.20;14.43;;;20.40;99.90;;;;;;5075597;28;20304;-84
2021/06/25 09:20:55;;;;;;;17.60;12.77;;;20.40;99.90;;;;;;5076185;28;20208;-85
2021/06/25 09:23:27;;;;;;;16.35;12.45;;;20.50;99.90;;;;;;5076663;28;20235;-84
2021/06/25 09:25:56;;;;;;;18.90;13.93;;;20.60;99.90;;;;;;5075809;28;20205;-85
2021/06/25 09:28:27;;;;;;;19.77;13.48;;;20.80;99.90;;;;;;5076711;28;20205;-83
2021/06/25 09:30:54;;;;;;;16.73;12.13;;;20.90;99.90;;;;;;5075872;28;20481;-85
2021/06/25 09:33:22;;;;;;;22.63;13.85;;;20.90;99.90;;;;;;5075714;28;20606;-87
2021/06/25 09:35:55;;;;;;;16.33;10.98;;;20.90;99.90;;;;;;5076250;28;20514;-82
2021/06/25 09:38:36;;;;;;;15.57;12.15;;;21.00;99.90;;;;;;5076178;28;20217;-85
2021/06/25 09:41:15;;;;;;;19.65;13.65;;;20.90;99.90;;;;;;5075760;28;20318;-82
2021/06/25 09:43:52;;;;;;;20.50;13.85;;;20.90;99.90;;;;;;5076010;28;20220;-84
2021/06/25 09:46:25;;;;;;;25.30;15.15;;;20.80;99.90;;;;;;5076138;28;20193;-83
2021/06/25 09:48:53;;;;;;;14.55;12.73;;;20.80;99.90;;;;;;5076074;28;20221;-85
2021/06/25 09:51:22;;;;;;;18.05;14.50;;;20.80;99.90;;;;;;5076816;28;20205;-85
2021/06/25 09:54:14;;;;;;;19.55;15.75;;;20.70;99.90;;;;;;5075643;28;20190;-83
2021/06/25 09:56:46;;;;;;;20.40;14.38;;;20.70;99.90;;;;;;5075894;28;20942;-82
2021/06/25 10:02:25;;;;;;;20.40;14.52;;;20.40;99.90;;;;;;5058381;28;20216;-85
2021/06/25 10:04:53;;;;;;;17.42;13.90;;;20.20;99.90;;;;;;5075792;28;20330;-83
2021/06/25 10:07:22;;;;;;;20.52;13.35;;;20.20;99.90;;;;;;5075403;28;20232;-84
2021/06/25 10:09:51;;;;;;;17.65;13.50;;;20.00;99.90;;;;;;5075724;28;20193;-86
2021/06/25 10:12:19;;;;;;;18.40;11.85;;;20.00;99.90;;;;;;5075931;28;20224;-88
2021/06/25 10:14:48;;;;;;;18.70;12.20;;;20.10;99.90;;;;;;5075305;28;20204;-85
2021/06/25 10:17:16;;;;;;;17.20;11.77;;;20.10;99.90;;;;;;5076140;28;20223;-83
2021/06/25 10:19:44;;;;;;;17.90;12.18;;;20.00;99.90;;;;;;5075627;28;20221;-87
2021/06/25 10:22:14;;;;;;;20.05;12.88;;;19.90;99.90;;;;;;5075473;28;20205;-83
2021/06/25 10:24:44;;;;;;;20.92;13.50;;;19.80;99.90;;;;;;5075821;28;20488;-87
2021/06/25 10:27:12;;;;;;;17.85;12.95;;;19.70;99.90;;;;;;5075620;28;20503;-88
2021/06/25 10:29:40;;;;;;;18.10;12.25;;;19.50;99.90;;;;;;5090404;28;20205;-83
2021/06/25 10:32:09;;;;;;;19.10;13.18;;;19.50;99.90;;;;;;5095528;28;20197;-84
2021/06/25 10:34:37;;;;;;;22.80;13.88;;;19.40;99.90;;;;;;5093688;28;20484;-81
2021/06/25 10:37:06;;;;;;;17.75;13.02;;;19.40;99.90;;;;;;5075391;28;20197;-84
2021/06/25 10:39:33;;;;;;;21.25;12.35;;;19.30;99.90;;;;;;5075390;28;20228;-85
2021/06/25 10:42:04;;;;;;;17.42;11.25;;;19.20;99.90;;;;;;5075536;28;20204;-88
2021/06/25 10:44:37;;;;;;;17.83;12.45;;;19.20;99.90;;;;;;5075643;28;20542;-86
2021/06/25 10:47:18;;;;;;;18.45;11.07;;;19.10;99.90;;;;;;5077550;28;20201;-84
2021/06/25 10:50:31;;;;;;;13.40;8.75;;;19.10;99.90;;;;;;5094823;28;20715;-86
2021/06/25 10:53:25;;;;;;;17.30;8.52;;;19.10;99.90;;;;;;5095688;28;20193;-85
2021/06/25 10:56:04;;;;;;;11.30;7.07;;;19.10;99.90;;;;;;5093711;28;20242;-83
2021/06/25 10:58:32;;;;;;;15.75;7.55;;;19.10;99.90;;;;;;5074473;28;20228;-83
2021/06/25 11:01:01;;;;;;;12.48;6.88;;;19.00;99.90;;;;;;5089645;28;20509;-85
2021/06/25 11:03:47;;;;;;;12.73;6.47;;;19.10;99.90;;;;;;5095037;28;20197;-83
2021/06/25 11:06:55;;;;;;;11.80;7.07;;;19.00;99.90;;;;;;5095414;28;20197;-82
2021/06/25 11:09:23;;;;;;;11.93;6.53;;;18.90;99.90;;;;;;5095236;28;20577;-80
2021/06/25 11:12:14;;;;;;;16.33;7.18;;;18.90;99.90;;;;;;5097313;28;20220;-84
2021/06/25 11:14:42;;;;;;;12.80;7.68;;;18.90;99.90;;;;;;5099338;28;20197;-85
2021/06/25 11:17:09;;;;;;;13.25;8.10;;;18.80;99.90;;;;;;5098437;28;20597;-86
2021/06/25 11:19:40;;;;;;;15.60;9.57;;;18.80;99.90;;;;;;5098970;28;20225;-87
2021/06/25 11:22:43;;;;;;;13.98;8.68;;;18.80;99.90;;;;;;5099174;28;20491;-87
2021/06/25 11:25:15;;;;;;;14.55;9.45;;;18.80;99.90;;;;;;5087150;28;20196;-85
2021/06/25 11:28:08;;;;;;;14.98;8.45;;;18.80;99.90;;;;;;5078630;28;20228;-86
2021/06/25 11:30:59;;;;;;;13.90;9.02;;;18.80;99.90;;;;;;5079072;28;20185;-81
2021/06/25 11:33:32;;;;;;;21.85;11.27;;;18.80;99.90;;;;;;5078246;28;20239;-84
2021/06/25 11:36:27;;;;;;;20.02;10.82;;;18.80;99.90;;;;;;5078628;28;20663;-85
2021/06/25 11:39:09;;;;;;;12.40;9.65;;;18.80;99.90;;;;;;5077966;28;20213;-84
2021/06/25 11:41:38;;;;;;;17.80;11.45;;;18.80;99.90;;;;;;5078587;28;20204;-81
2021/06/25 11:44:10;;;;;;;14.95;10.82;;;18.70;99.90;;;;;;5078536;28;20593;-85
2021/06/25 11:46:40;;;;;;;18.58;10.38;;;18.60;99.90;;;;;;5077887;28;20190;-86
2021/06/25 11:49:07;;;;;;;15.10;12.02;;;18.70;99.90;;;;;;5077939;28;20225;-84
2021/06/25 11:51:37;;;;;;;18.00;13.35;;;18.60;99.90;;;;;;5087047;28;20204;-83
2021/06/25 11:54:06;;;;;;;17.77;13.30;;;18.60;99.90;;;;;;5098167;28;20185;-81
2021/06/25 11:56:33;;;;;;;16.05;12.82;;;18.60;99.90;;;;;;5098601;28;20231;-86
2021/06/25 11:59:02;;;;;;;18.90;15.85;;;18.60;99.90;;;;;;5096948;28;20224;-83
2021/06/25 12:01:30;;;;;;;19.98;15.43;;;18.60;99.90;;;;;;5097977;28;20207;-85
2021/06/25 12:03:59;;;;;;;18.25;15.35;;;18.60;99.90;;;;;;5098460;28;20207;-84
2021/06/25 12:06:27;;;;;;;20.27;17.42;;;18.60;99.90;;;;;;5098111;28;20192;-84
2021/06/25 12:08:56;;;;;;;21.73;18.17;;;18.60;99.90;;;;;;5096828;28;20212;-85
2021/06/25 12:11:25;;;;;;;23.65;20.30;;;18.60;99.90;;;;;;5087033;28;20220;-86
2021/06/25 12:14:02;;;;;;;21.85;19.42;;;18.60;99.90;;;;;;5077319;28;20194;-81
2021/06/25 12:16:29;;;;;;;20.35;17.35;;;18.50;99.90;;;;;;5077672;28;20201;-84
2021/06/25 12:18:58;;;;;;;21.55;17.35;;;18.50;99.90;;;;;;5077705;28;20217;-84
2021/06/25 12:21:25;;;;;;;19.10;16.65;;;18.40;99.90;;;;;;5076474;28;20193;-81
2021/06/25 12:23:56;;;;;;;21.75;16.27;;;18.40;99.90;;;;;;5077449;28;20508;-81
2021/06/25 12:26:25;;;;;;;18.23;15.30;;;18.50;99.90;;;;;;5077257;28;20209;-82
2021/06/25 12:28:53;;;;;;;14.95;13.43;;;18.50;99.90;;;;;;5076851;28;20744;-82
2021/06/25 12:31:22;;;;;;;16.33;12.90;;;18.60;99.90;;;;;;5077243;28;20491;-84
2021/06/25 12:33:50;;;;;;;13.95;12.18;;;18.60;99.90;;;;;;5077037;28;20598;-81
2021/06/25 12:36:19;;;;;;;12.07;9.90;;;18.60;99.90;;;;;;5076434;28;20609;-84
2021/06/25 12:38:50;;;;;;;10.93;9.30;;;18.80;99.90;;;;;;5076903;28;20534;-82
2021/06/25 12:41:17;;;;;;;11.25;9.50;;;18.90;99.90;;;;;;5076823;28;20209;-84
2021/06/25 12:43:46;;;;;;;12.82;9.30;;;19.10;99.90;;;;;;5076533;28;20224;-83
2021/06/25 12:46:14;;;;;;;12.15;9.75;;;19.40;99.90;;;;;;5076985;28;20201;-82
2021/06/25 12:48:46;;;;;;;11.25;8.43;;;19.70;99.90;;;;;;5086802;28;20224;-80
2021/06/25 12:51:15;;;;;;;10.55;7.90;;;20.00;99.90;;;;;;5097212;28;20262;-82
2021/06/25 12:53:46;;;;;;;11.38;7.70;;;20.30;99.90;;;;;;5088237;28;20400;-82